createdAt,value
2019-01-24T00:57:29.154Z,100284.86
2019-01-24T00:58:30.015Z,100292.46
2019-01-24T00:59:30.985Z,100286.73
2019-01-24T01:00:31.953Z,100296.52
2019-01-24T01:01:32.817Z,100294.09
2019-01-24T01:02:33.712Z,100300.64
2019-01-24T01:03:34.580Z,100296.55
2019-01-24T01:04:35.439Z,100303.22
2019-01-24T01:05:36.295Z,100308.91
2019-01-24T01:06:37.159Z,100308.79
2019-01-24T01:07:38.058Z,100310.03
2019-01-24T01:08:38.925Z,100309.56
2019-01-24T01:09:39.793Z,100312.13
2019-01-24T01:10:40.656Z,100312.38
2019-01-24T01:11:41.521Z,100317.52
2019-01-24T01:12:42.421Z,100311.16
2019-01-24T01:13:43.281Z,100319.63
2019-01-24T01:14:44.141Z,100317.96
2019-01-24T01:15:45.001Z,100317.66
2019-01-24T01:16:45.873Z,100320.28
2019-01-24T01:17:46.777Z,100319.56
2019-01-24T01:18:47.698Z,100317.56
2019-01-24T01:19:48.577Z,100319.52
2019-01-24T01:20:49.439Z,100314.73
2019-01-24T01:21:50.305Z,100318.20
2019-01-24T01:22:51.246Z,100315.51
2019-01-24T01:23:52.087Z,100316.00
2019-01-24T01:24:52.959Z,100318.66
2019-01-24T01:25:53.817Z,100323.32
2019-01-24T01:26:54.675Z,100325.86
2019-01-24T01:27:55.587Z,100319.73
2019-01-24T01:28:56.456Z,100324.63
2019-01-24T01:29:57.321Z,100324.14
2019-01-24T01:30:58.180Z,100320.16
2019-01-24T01:31:59.143Z,100315.97
2019-01-24T01:33:00.241Z,100319.63
2019-01-24T01:34:01.117Z,100322.12
2019-01-24T01:35:01.973Z,100324.59
2019-01-24T01:36:02.928Z,100321.06
2019-01-24T01:37:03.897Z,100325.42
2019-01-24T01:38:04.801Z,100328.55
2019-01-24T01:39:05.869Z,100326.70
2019-01-24T01:40:10.027Z,100326.08
2019-01-24T01:41:11.084Z,100323.19
2019-01-24T01:42:11.941Z,100319.14
2019-01-24T01:43:12.937Z,100320.48
2019-01-24T01:44:13.800Z,100317.17
2019-01-24T01:45:19.149Z,100323.68
2019-01-24T01:46:20.013Z,100320.22
2019-01-24T01:47:20.877Z,100320.44
2019-01-24T01:48:21.780Z,100323.26
2019-01-24T01:49:22.639Z,100324.38
2019-01-24T01:50:23.509Z,100324.37
2019-01-24T01:51:24.377Z,100326.22
2019-01-24T01:52:25.239Z,100321.02
2019-01-24T01:53:26.143Z,100320.73
2019-01-24T01:54:26.997Z,100321.42
2019-01-24T01:55:27.858Z,100323.94
2019-01-24T01:56:28.789Z,100318.74
2019-01-24T01:57:29.657Z,100318.75
2019-01-24T01:58:30.651Z,100328.80
2019-01-24T01:59:31.527Z,100325.78
2019-01-24T02:00:32.393Z,100328.79
2019-01-24T02:01:33.253Z,100325.78
2019-01-24T02:02:34.113Z,100322.61
2019-01-24T02:03:35.003Z,100330.28
2019-01-24T02:04:35.881Z,100325.42
2019-01-24T02:05:36.737Z,100331.95
2019-01-24T02:06:37.613Z,100328.45
2019-01-24T02:07:38.477Z,100322.41
2019-01-24T02:08:39.376Z,100323.73
2019-01-24T02:09:46.885Z,100329.94
2019-01-24T02:10:47.803Z,100325.37
2019-01-24T02:11:48.733Z,100329.09
2019-01-24T02:12:49.610Z,100320.92
2019-01-24T02:13:50.511Z,100320.92
2019-01-24T02:14:51.362Z,100322.77
2019-01-24T02:15:52.231Z,100322.42
2019-01-24T02:16:53.091Z,100325.42
2019-01-24T02:17:53.942Z,100324.08
2019-01-24T02:18:54.833Z,100321.13
2019-01-24T02:19:55.701Z,100326.12
2019-01-24T02:20:56.560Z,100325.63
2019-01-24T02:21:57.537Z,100320.91
2019-01-24T02:22:58.388Z,100319.95
2019-01-24T02:23:59.283Z,100317.11
2019-01-24T02:25:00.524Z,100321.08
2019-01-24T02:26:01.380Z,100322.75
2019-01-24T02:27:02.328Z,100326.47
2019-01-24T02:28:03.191Z,100320.42
2019-01-24T02:29:04.190Z,100326.13
2019-01-24T02:30:09.470Z,100325.27
2019-01-24T02:31:10.338Z,100334.78
2019-01-24T02:32:11.189Z,100324.59
2019-01-24T02:33:12.056Z,100327.55
2019-01-24T02:34:13.064Z,100331.41
2019-01-24T02:35:13.928Z,100332.41
2019-01-24T02:36:14.807Z,100336.13
2019-01-24T02:37:15.740Z,100331.47
2019-01-24T02:38:16.709Z,100334.24
2019-01-24T02:39:17.616Z,100336.61
2019-01-24T02:40:18.463Z,100334.44
2019-01-24T02:41:19.324Z,100332.95
2019-01-24T02:42:20.188Z,100343.16
2019-01-24T02:43:21.051Z,100342.12
2019-01-24T02:44:22.072Z,100336.62
2019-01-24T02:45:23.182Z,100339.14
2019-01-24T02:46:24.014Z,100341.46
2019-01-24T02:47:24.986Z,100334.29
2019-01-24T02:48:25.849Z,100339.44
2019-01-24T02:49:26.738Z,100336.47
2019-01-24T02:50:27.611Z,100338.44
2019-01-24T02:51:28.516Z,100341.11
2019-01-24T02:52:29.367Z,100340.58
2019-01-24T02:53:30.471Z,100341.06
2019-01-24T02:54:31.324Z,100338.58
2019-01-24T02:55:32.190Z,100339.28
2019-01-24T02:56:33.079Z,100345.48
2019-01-24T02:57:33.946Z,100344.93
2019-01-24T02:58:34.804Z,100343.08
2019-01-24T02:59:35.662Z,100344.56
2019-01-24T03:00:36.517Z,100351.75
2019-01-24T03:01:37.411Z,100353.80
2019-01-24T03:02:38.276Z,100354.00
2019-01-24T03:03:39.235Z,100358.00
2019-01-24T03:04:40.190Z,100357.11
2019-01-24T03:05:41.164Z,100357.61
2019-01-24T03:06:42.135Z,100358.30
2019-01-24T03:07:42.993Z,100359.48
2019-01-24T03:08:43.846Z,100358.80
2019-01-24T03:09:44.823Z,100360.97
2019-01-24T03:10:45.756Z,100354.34
2019-01-24T03:11:46.749Z,100358.85
2019-01-24T03:12:47.828Z,100363.02
2019-01-24T03:13:48.750Z,100358.16
2019-01-24T03:14:49.622Z,100361.38
2019-01-24T03:15:50.476Z,100361.72
2019-01-24T03:16:51.393Z,100364.05
2019-01-24T03:17:52.348Z,100359.38
2019-01-24T03:18:53.214Z,100355.87
2019-01-24T03:19:54.087Z,100359.20
2019-01-24T03:20:54.940Z,100362.55
2019-01-24T03:21:55.940Z,100363.20
2019-01-24T03:22:56.822Z,100362.92
2019-01-24T03:23:57.760Z,100360.22
2019-01-24T03:24:58.728Z,100362.55
2019-01-24T03:25:59.583Z,100363.70
2019-01-24T03:27:00.754Z,100364.54
2019-01-24T03:28:01.612Z,100368.02
2019-01-24T03:29:02.461Z,100367.86
2019-01-24T03:30:06.737Z,100365.83
2019-01-24T03:31:07.584Z,100365.48
2019-01-24T03:32:08.479Z,100366.16
2019-01-24T03:33:09.370Z,100367.30
2019-01-24T03:34:10.195Z,100364.16
2019-01-24T03:35:13.868Z,100373.06
2019-01-24T03:36:14.832Z,100377.53
2019-01-24T03:37:15.837Z,100374.89
2019-01-24T03:38:16.760Z,100369.36
2019-01-24T03:39:17.730Z,100372.37
2019-01-24T03:40:18.600Z,100366.56
2019-01-24T03:41:19.436Z,100382.26
2019-01-24T03:42:20.331Z,100378.91
2019-01-24T03:43:21.302Z,100373.90
2019-01-24T03:44:22.158Z,100378.41
2019-01-24T03:45:23.019Z,100372.86
2019-01-24T03:46:23.879Z,100377.38
2019-01-24T03:47:24.830Z,100373.92
2019-01-24T03:48:25.759Z,100374.58
2019-01-24T03:49:26.817Z,100377.75
2019-01-24T03:50:29.330Z,100371.26
2019-01-24T03:51:30.280Z,100379.95
2019-01-24T03:52:31.203Z,100375.23
2019-01-24T03:53:32.051Z,100376.59
2019-01-24T03:54:32.902Z,100381.45
2019-01-24T03:55:33.830Z,100385.93
2019-01-24T03:56:34.744Z,100380.27
2019-01-24T03:57:35.591Z,100383.91
2019-01-24T03:58:36.444Z,100382.76
2019-01-24T03:59:37.309Z,100389.10
2019-01-24T04:00:38.166Z,100386.27
2019-01-24T04:01:39.057Z,100388.11
2019-01-24T04:02:39.926Z,100396.13
2019-01-24T04:03:40.784Z,100397.31
2019-01-24T04:04:41.870Z,100395.59
2019-01-24T04:05:44.633Z,100397.08
2019-01-24T04:06:45.556Z,100401.09
2019-01-24T04:07:46.418Z,100399.91
2019-01-24T04:08:47.277Z,100404.91
2019-01-24T04:09:48.233Z,100403.62
2019-01-24T04:10:49.094Z,100396.63
2019-01-24T04:11:50.002Z,100399.95
2019-01-24T04:12:50.858Z,100399.97
2019-01-24T04:13:51.780Z,100397.48
2019-01-24T04:14:52.748Z,100397.95
2019-01-24T04:15:53.600Z,100397.61
2019-01-24T04:16:54.488Z,100394.60
2019-01-24T04:17:55.371Z,100407.13
2019-01-24T04:19:04.872Z,100398.30
2019-01-24T04:20:09.154Z,100401.30
2019-01-24T04:21:10.016Z,100402.98
2019-01-24T04:22:10.900Z,100407.81
2019-01-24T04:23:11.842Z,100403.99
2019-01-24T04:24:12.782Z,100406.66
2019-01-24T04:25:13.960Z,100406.82
2019-01-24T04:26:14.822Z,100407.14
2019-01-24T04:27:15.698Z,100410.66
2019-01-24T04:28:16.556Z,100409.95
2019-01-24T04:29:17.447Z,100419.02
2019-01-24T04:30:22.131Z,100411.67
2019-01-24T04:31:23.088Z,100413.02
2019-01-24T04:32:23.962Z,100406.66
2019-01-24T04:33:24.853Z,100407.50
2019-01-24T04:34:25.850Z,100408.50
2019-01-24T04:35:26.788Z,100407.32
2019-01-24T04:36:27.661Z,100411.64
2019-01-24T04:37:28.540Z,100411.64
2019-01-24T04:38:29.397Z,100413.66
2019-01-24T04:39:30.536Z,100416.84
2019-01-24T04:40:31.404Z,100418.33
2019-01-24T04:41:32.266Z,100415.19
2019-01-24T04:42:33.121Z,100419.34
2019-01-24T04:43:33.984Z,100420.52
2019-01-24T04:44:34.880Z,100421.48
2019-01-24T04:45:37.342Z,100425.67
2019-01-24T04:46:38.308Z,100427.34
2019-01-24T04:47:41.159Z,100428.34
2019-01-24T04:48:42.116Z,100424.03
2019-01-24T04:49:43.111Z,100423.85
2019-01-24T04:50:43.988Z,100422.87
2019-01-24T04:51:44.871Z,100417.67
2019-01-24T04:52:45.814Z,100421.17
2019-01-24T04:53:46.676Z,100425.16
2019-01-24T04:54:47.571Z,100417.63
2019-01-24T04:55:48.441Z,100420.85
2019-01-24T04:56:50.921Z,100423.01
2019-01-24T04:57:51.869Z,100424.02
2019-01-24T04:58:52.810Z,100425.50
2019-01-24T04:59:53.810Z,100422.67
2019-01-24T05:00:54.676Z,100429.05
2019-01-24T05:01:55.528Z,100418.34
2019-01-24T05:02:56.439Z,100423.34
2019-01-24T05:03:57.348Z,100428.34
2019-01-24T05:04:58.249Z,100433.85
2019-01-24T05:05:59.106Z,100421.66
2019-01-24T05:07:00.131Z,100427.00
2019-01-24T05:08:01.199Z,100425.98
2019-01-24T05:09:04.778Z,100422.98
2019-01-24T05:10:08.901Z,100427.95
2019-01-24T05:11:09.984Z,100431.80
2019-01-24T05:12:10.860Z,100429.67
2019-01-24T05:13:11.716Z,100433.34
2019-01-24T05:14:12.578Z,100433.17
2019-01-24T05:15:13.531Z,100434.31
2019-01-24T05:16:14.401Z,100436.48
2019-01-24T05:17:15.375Z,100434.50
2019-01-24T05:18:16.242Z,100437.86
2019-01-24T05:19:17.224Z,100440.39
2019-01-24T05:20:18.127Z,100435.89
2019-01-24T05:21:18.980Z,100442.73
2019-01-24T05:22:19.854Z,100441.91
2019-01-24T05:23:20.815Z,100443.25
2019-01-24T05:24:21.818Z,100438.05
2019-01-24T05:25:22.717Z,100440.05
2019-01-24T05:26:23.575Z,100435.72
2019-01-24T05:27:24.443Z,100442.41
2019-01-24T05:28:25.298Z,100445.40
2019-01-24T05:29:26.160Z,100438.41
2019-01-24T05:30:27.466Z,100441.06
2019-01-24T05:31:28.322Z,100442.56
2019-01-24T05:32:29.198Z,100440.70
2019-01-24T05:33:30.275Z,100437.56
2019-01-24T05:34:31.252Z,100443.08
2019-01-24T05:35:34.855Z,100438.91
2019-01-24T05:36:34.930Z,100441.56
2019-01-24T05:37:35.905Z,100445.22
2019-01-24T05:38:36.752Z,100446.39
2019-01-24T05:39:37.616Z,100444.06
2019-01-24T05:40:38.503Z,100447.08
2019-01-24T05:41:39.468Z,100442.39
2019-01-24T05:42:40.349Z,100443.73
2019-01-24T05:43:41.294Z,100438.05
2019-01-24T05:44:42.113Z,100438.72
2019-01-24T05:45:43.090Z,100436.39
2019-01-24T05:46:43.953Z,100441.73
2019-01-24T05:47:44.881Z,100441.73
2019-01-24T05:48:45.890Z,100439.38
2019-01-24T05:49:46.846Z,100445.06
2019-01-24T05:50:48.004Z,100446.75
2019-01-24T05:51:48.942Z,100446.75
2019-01-24T05:52:49.805Z,100440.23
2019-01-24T05:53:50.865Z,100446.58
2019-01-24T05:54:51.754Z,100440.73
2019-01-24T05:55:52.666Z,100452.11
2019-01-24T05:56:53.514Z,100448.42
2019-01-24T05:57:54.370Z,100449.41
2019-01-24T05:58:55.323Z,100451.43
2019-01-24T05:59:56.318Z,100453.44
2019-01-24T06:00:59.300Z,100452.77
2019-01-24T06:02:00.311Z,100446.74
2019-01-24T06:03:08.613Z,100452.10
2019-01-24T06:04:09.465Z,100462.61
2019-01-24T06:05:19.800Z,100454.77
2019-01-24T06:06:20.812Z,100456.12
2019-01-24T06:07:23.082Z,100460.96
2019-01-24T06:08:24.065Z,100470.66
2019-01-24T06:09:24.954Z,100466.48
2019-01-24T06:10:25.892Z,100475.81
2019-01-24T06:11:26.886Z,100471.83
2019-01-24T06:12:27.751Z,100476.50
2019-01-24T06:13:28.608Z,100477.16
2019-01-24T06:14:29.459Z,100470.81
2019-01-24T06:15:30.566Z,100478.34
2019-01-24T06:16:31.549Z,100477.51
2019-01-24T06:17:32.406Z,100470.64
2019-01-24T06:18:33.268Z,100473.83
2019-01-24T06:19:34.125Z,100470.95
2019-01-24T06:20:34.992Z,100472.81
2019-01-24T06:21:35.995Z,100476.81
2019-01-24T06:22:36.861Z,100475.15
2019-01-24T06:23:37.821Z,100478.02
2019-01-24T06:24:38.790Z,100473.31
2019-01-24T06:25:39.787Z,100475.77
2019-01-24T06:26:40.822Z,100477.09
2019-01-24T06:27:41.820Z,100482.58
2019-01-24T06:28:42.684Z,100484.75
2019-01-24T06:29:43.549Z,100490.20
2019-01-24T06:30:44.425Z,100493.72
2019-01-24T06:31:45.300Z,100499.22
2019-01-24T06:32:46.164Z,100497.76
2019-01-24T06:33:47.022Z,100499.80
2019-01-24T06:34:47.888Z,100503.63
2019-01-24T06:35:49.094Z,100497.84
2019-01-24T06:36:49.951Z,100500.85
2019-01-24T06:37:50.868Z,100504.86
2019-01-24T06:38:51.833Z,100498.53
2019-01-24T06:39:52.700Z,100504.44
2019-01-24T06:40:53.558Z,100506.66
2019-01-24T06:41:54.420Z,100506.17
2019-01-24T06:42:57.848Z,100514.55
2019-01-24T06:43:58.694Z,100513.67
2019-01-24T06:44:59.558Z,100515.56
2019-01-24T06:46:00.568Z,100512.06
2019-01-24T06:47:01.448Z,100512.25
2019-01-24T06:48:02.350Z,100510.75
2019-01-24T06:49:03.976Z,100514.92
2019-01-24T06:50:08.674Z,100509.41
2019-01-24T06:51:09.537Z,100519.27
2019-01-24T06:52:10.564Z,100514.89
2019-01-24T06:53:11.467Z,100523.19
2019-01-24T06:54:12.343Z,100527.23
2019-01-24T06:55:24.784Z,100527.74
2019-01-24T06:56:25.654Z,100528.73
2019-01-24T06:57:26.510Z,100514.21
2019-01-24T06:58:27.428Z,100518.91
2019-01-24T06:59:28.290Z,100523.59
2019-01-24T07:00:29.144Z,100524.24
2019-01-24T07:01:30.002Z,100529.52
2019-01-24T07:02:30.965Z,100531.39
2019-01-24T07:03:31.872Z,100530.91
2019-01-24T07:04:32.725Z,100528.48
2019-01-24T07:05:33.579Z,100530.37
2019-01-24T07:06:34.433Z,100529.58
2019-01-24T07:07:35.300Z,100532.93
2019-01-24T07:08:36.204Z,100540.35
2019-01-24T07:09:37.073Z,100540.27
2019-01-24T07:10:37.919Z,100540.70
2019-01-24T07:11:38.778Z,100552.06
2019-01-24T07:12:39.738Z,100547.95
2019-01-24T07:13:40.639Z,100549.63
2019-01-24T07:14:41.494Z,100544.45
2019-01-24T07:15:42.350Z,100546.88
2019-01-24T07:16:43.202Z,100547.38
2019-01-24T07:17:44.075Z,100557.13
2019-01-24T07:18:45.090Z,100554.13
2019-01-24T07:19:45.960Z,100551.61
2019-01-24T07:20:47.024Z,100552.62
2019-01-24T07:21:47.896Z,100562.50
2019-01-24T07:22:48.761Z,100559.67
2019-01-24T07:23:49.648Z,100567.18
2019-01-24T07:24:50.520Z,100566.50
2019-01-24T07:25:51.389Z,100567.86
2019-01-24T07:26:52.261Z,100567.60
2019-01-24T07:27:53.126Z,100570.09
2019-01-24T07:28:54.054Z,100572.34
2019-01-24T07:29:54.925Z,100570.68
2019-01-24T07:30:55.798Z,100575.36
2019-01-24T07:31:56.663Z,100573.23
2019-01-24T07:32:57.522Z,100569.73
2019-01-24T07:33:58.412Z,100574.77
2019-01-24T07:34:59.279Z,100567.05
2019-01-24T07:36:02.352Z,100572.44
2019-01-24T07:37:03.017Z,100574.78
2019-01-24T07:38:03.869Z,100572.62
2019-01-24T07:39:05.971Z,100575.95
2019-01-24T07:40:11.858Z,100580.13
2019-01-24T07:41:12.724Z,100577.11
2019-01-24T07:42:13.600Z,100574.47
2019-01-24T07:43:15.733Z,100576.47
2019-01-24T07:44:16.870Z,100578.80
2019-01-24T07:45:21.536Z,100581.82
2019-01-24T07:46:22.394Z,100580.44
2019-01-24T07:47:23.253Z,100579.48
2019-01-24T07:48:24.111Z,100588.19
2019-01-24T07:49:25.007Z,100586.66
2019-01-24T07:50:25.870Z,100585.02
2019-01-24T07:51:26.730Z,100588.00
2019-01-24T07:52:27.600Z,100581.81
2019-01-24T07:53:28.512Z,100585.45
2019-01-24T07:54:29.371Z,100586.73
2019-01-24T07:55:30.353Z,100589.15
2019-01-24T07:56:31.214Z,100592.14
2019-01-24T07:57:32.074Z,100589.67
2019-01-24T07:58:32.984Z,100588.56
2019-01-24T07:59:33.842Z,100593.28
2019-01-24T08:00:34.706Z,100586.98
2019-01-24T08:01:35.570Z,100590.77
2019-01-24T08:02:36.427Z,100590.66
2019-01-24T08:03:37.323Z,100590.47
2019-01-24T08:04:38.183Z,100586.97
2019-01-24T08:05:39.041Z,100591.33
2019-01-24T08:06:39.923Z,100590.48
2019-01-24T08:07:40.790Z,100593.61
2019-01-24T08:08:41.654Z,100591.82
2019-01-24T08:09:42.516Z,100588.30
2019-01-24T08:10:43.980Z,100589.75
2019-01-24T08:11:44.939Z,100591.48
2019-01-24T08:12:45.808Z,100587.16
2019-01-24T08:13:46.713Z,100590.55
2019-01-24T08:14:47.588Z,100592.30
2019-01-24T08:15:48.440Z,100588.56
2019-01-24T08:16:49.296Z,100588.50
2019-01-24T08:17:50.202Z,100589.08
2019-01-24T08:18:51.058Z,100586.80
2019-01-24T08:19:51.923Z,100583.53
2019-01-24T08:20:52.790Z,100590.06
2019-01-24T08:21:53.665Z,100592.04
2019-01-24T08:22:54.536Z,100597.80
2019-01-24T08:23:55.418Z,100589.73
2019-01-24T08:24:56.276Z,100589.00
2019-01-24T08:25:57.140Z,100593.82
2019-01-24T08:26:58.000Z,100592.58
2019-01-24T08:27:58.924Z,100595.15
2019-01-24T08:28:59.856Z,100592.64
2019-01-24T08:30:00.924Z,100594.48
2019-01-24T08:31:01.798Z,100598.53
2019-01-24T08:32:02.660Z,100594.31
2019-01-24T08:33:03.528Z,100597.19
2019-01-24T08:34:04.449Z,100602.00
2019-01-24T08:35:07.111Z,100605.52
2019-01-24T08:36:07.970Z,100601.14
2019-01-24T08:37:08.845Z,100603.86
2019-01-24T08:38:09.704Z,100600.89
2019-01-24T08:39:10.586Z,100602.74
2019-01-24T08:40:17.121Z,100601.23
2019-01-24T08:41:17.975Z,100601.56
2019-01-24T08:42:20.706Z,100597.04
2019-01-24T08:43:21.580Z,100597.88
2019-01-24T08:44:22.479Z,100602.06
2019-01-24T08:45:23.348Z,100595.86
2019-01-24T08:46:24.210Z,100601.73
2019-01-24T08:47:25.075Z,100603.89
2019-01-24T08:48:25.940Z,100606.91
2019-01-24T08:49:26.832Z,100613.27
2019-01-24T08:50:27.701Z,100610.77
2019-01-24T08:51:28.552Z,100612.60
2019-01-24T08:52:29.428Z,100610.94
2019-01-24T08:53:30.364Z,100609.56
2019-01-24T08:54:31.260Z,100610.07
2019-01-24T08:55:34.318Z,100609.75
2019-01-24T08:56:35.187Z,100609.58
2019-01-24T08:57:36.041Z,100616.27
2019-01-24T08:58:36.903Z,100611.94
2019-01-24T08:59:37.793Z,100618.61
2019-01-24T09:00:38.655Z,100622.12
2019-01-24T09:01:39.518Z,100620.97
2019-01-24T09:02:40.387Z,100618.45
2019-01-24T09:03:41.243Z,100630.31
2019-01-24T09:04:42.148Z,100621.61
2019-01-24T09:05:43.006Z,100622.13
2019-01-24T09:06:43.861Z,100613.92
2019-01-24T09:07:44.714Z,100612.23
2019-01-24T09:08:45.571Z,100613.08
2019-01-24T09:09:46.467Z,100614.77
2019-01-24T09:10:47.348Z,100618.25
2019-01-24T09:11:48.209Z,100627.63
2019-01-24T09:12:49.063Z,100624.30
2019-01-24T09:13:49.932Z,100626.66
2019-01-24T09:14:50.927Z,100627.33
2019-01-24T09:15:51.796Z,100632.66
2019-01-24T09:16:52.650Z,100634.19
2019-01-24T09:17:53.503Z,100633.69
2019-01-24T09:18:54.360Z,100639.03
2019-01-24T09:19:55.235Z,100636.34
2019-01-24T09:20:56.928Z,100640.02
2019-01-24T09:21:58.154Z,100640.71
2019-01-24T09:22:59.009Z,100643.98
2019-01-24T09:23:59.925Z,100650.20
2019-01-24T09:25:00.874Z,100649.02
2019-01-24T09:26:01.734Z,100641.34
2019-01-24T09:27:02.589Z,100638.86
2019-01-24T09:28:03.453Z,100640.52
2019-01-24T09:29:04.352Z,100638.36
2019-01-24T09:30:14.283Z,100649.73
2019-01-24T09:31:15.144Z,100634.33
2019-01-24T09:32:16.038Z,100639.69
2019-01-24T09:33:16.892Z,100634.80
2019-01-24T09:34:17.792Z,100644.05
2019-01-24T09:35:18.656Z,100637.02
2019-01-24T09:36:19.521Z,100637.70
2019-01-24T09:37:20.400Z,100638.01
2019-01-24T09:38:21.253Z,100637.34
2019-01-24T09:39:22.158Z,100637.69
2019-01-24T09:40:23.018Z,100637.87
2019-01-24T09:41:23.878Z,100640.36
2019-01-24T09:42:24.740Z,100638.86
2019-01-24T09:43:25.602Z,100646.19
2019-01-24T09:44:26.470Z,100640.36
2019-01-24T09:45:27.838Z,100638.19
2019-01-24T09:46:28.791Z,100636.00
2019-01-24T09:47:29.655Z,100643.16
2019-01-24T09:48:30.629Z,100637.64
2019-01-24T09:49:31.479Z,100638.69
2019-01-24T09:50:32.339Z,100643.73
2019-01-24T09:51:33.233Z,100636.36
2019-01-24T09:52:34.132Z,100640.18
2019-01-24T09:53:35.038Z,100642.19
2019-01-24T09:54:35.898Z,100639.02
2019-01-24T09:55:36.760Z,100639.20
2019-01-24T09:56:37.614Z,100637.18
2019-01-24T09:57:38.467Z,100639.52
2019-01-24T09:58:39.390Z,100640.20
2019-01-24T09:59:40.247Z,100641.71
2019-01-24T10:00:41.111Z,100635.66
2019-01-24T10:01:41.968Z,100639.70
2019-01-24T10:02:42.823Z,100645.69
2019-01-24T10:03:43.719Z,100650.08
2019-01-24T10:04:44.580Z,100647.22
2019-01-24T10:05:45.433Z,100646.06
2019-01-24T10:06:46.292Z,100643.38
2019-01-24T10:07:47.151Z,100641.16
2019-01-24T10:08:48.051Z,100639.97
2019-01-24T10:09:48.908Z,100641.45
2019-01-24T10:10:49.782Z,100644.44
2019-01-24T10:11:50.640Z,100644.90
2019-01-24T10:12:52.403Z,100642.71
2019-01-24T10:13:53.301Z,100641.10
2019-01-24T10:14:54.157Z,100637.88
2019-01-24T10:15:55.015Z,100633.46
2019-01-24T10:16:55.871Z,100634.44
2019-01-24T10:17:56.731Z,100637.73
2019-01-24T10:18:57.911Z,100640.41
2019-01-24T10:19:58.777Z,100641.88
2019-01-24T10:20:59.649Z,100639.00
2019-01-24T10:22:00.812Z,100636.00
2019-01-24T10:23:01.678Z,100634.47
2019-01-24T10:24:02.674Z,100629.39
2019-01-24T10:25:10.102Z,100637.77
2019-01-24T10:26:10.967Z,100632.89
2019-01-24T10:27:11.843Z,100632.53
2019-01-24T10:28:12.699Z,100635.91
2019-01-24T10:29:13.595Z,100635.83
2019-01-24T10:30:17.374Z,100626.91
2019-01-24T10:31:18.234Z,100633.27
2019-01-24T10:32:19.103Z,100632.51
2019-01-24T10:33:19.975Z,100628.36
2019-01-24T10:34:20.875Z,100625.89
2019-01-24T10:35:21.842Z,100630.14
2019-01-24T10:36:22.703Z,100626.56
2019-01-24T10:37:23.575Z,100624.47
2019-01-24T10:38:24.439Z,100627.46
2019-01-24T10:39:25.360Z,100623.70
2019-01-24T10:40:28.221Z,100625.18
2019-01-24T10:41:29.085Z,100632.12
2019-01-24T10:42:29.965Z,100630.77
2019-01-24T10:43:30.939Z,100629.59
2019-01-24T10:44:32.620Z,100626.02
2019-01-24T10:45:33.713Z,100620.41
2019-01-24T10:46:34.581Z,100612.98
2019-01-24T10:47:35.434Z,100605.66
2019-01-24T10:48:36.301Z,100604.35
2019-01-24T10:49:37.203Z,100594.42
2019-01-24T10:50:38.107Z,100594.86
2019-01-24T10:51:38.982Z,100594.13
2019-01-24T10:52:39.849Z,100592.14
2019-01-24T10:53:40.712Z,100590.27
2019-01-24T10:54:41.713Z,100589.44
2019-01-24T10:55:42.606Z,100589.75
2019-01-24T10:56:43.472Z,100582.87
2019-01-24T10:57:44.536Z,100585.42
2019-01-24T10:58:45.406Z,100584.30
2019-01-24T10:59:46.303Z,100580.30
2019-01-24T11:00:47.674Z,100575.42
2019-01-24T11:01:48.546Z,100578.43
2019-01-24T11:02:49.407Z,100579.18
2019-01-24T11:03:50.322Z,100582.20
2019-01-24T11:04:51.186Z,100583.20
2019-01-24T11:05:52.060Z,100589.27
2019-01-24T11:06:52.918Z,100590.45
2019-01-24T11:07:53.782Z,100593.10
2019-01-24T11:08:54.677Z,100593.54
2019-01-24T11:09:55.547Z,100594.66
2019-01-24T11:10:56.410Z,100592.17
2019-01-24T11:11:57.280Z,100590.93
2019-01-24T11:12:58.146Z,100596.81
2019-01-24T11:13:59.022Z,100596.13
2019-01-24T11:14:59.919Z,100603.03
2019-01-24T11:16:00.955Z,100602.14
2019-01-24T11:17:02.264Z,100605.59
2019-01-24T11:18:04.152Z,100597.04
2019-01-24T11:19:05.028Z,100595.22
2019-01-24T11:20:09.291Z,100597.81
2019-01-24T11:21:10.165Z,100590.56
2019-01-24T11:22:11.066Z,100591.83
2019-01-24T11:23:11.930Z,100594.48
2019-01-24T11:24:12.789Z,100592.63
2019-01-24T11:25:18.270Z,100594.75
2019-01-24T11:26:19.119Z,100599.58
2019-01-24T11:27:27.000Z,100600.91
2019-01-24T11:28:29.775Z,100597.58
2019-01-24T11:29:30.747Z,100606.28
2019-01-24T11:30:32.713Z,100602.15
2019-01-24T11:31:33.583Z,100614.98
2019-01-24T11:32:34.490Z,100619.77
2019-01-24T11:33:35.355Z,100622.02
2019-01-24T11:34:36.221Z,100617.97
2019-01-24T11:35:37.095Z,100619.66
2019-01-24T11:36:37.962Z,100624.20
2019-01-24T11:37:38.873Z,100620.80
2019-01-24T11:38:39.740Z,100620.99
2019-01-24T11:39:40.598Z,100615.85
2019-01-24T11:40:41.459Z,100622.41
2019-01-24T11:41:42.317Z,100622.23
2019-01-24T11:42:43.309Z,100630.22
2019-01-24T11:43:44.187Z,100628.07
2019-01-24T11:44:45.059Z,100633.40
2019-01-24T11:45:45.908Z,100627.81
2019-01-24T11:46:46.765Z,100629.02
2019-01-24T11:47:47.656Z,100630.86
2019-01-24T11:48:48.514Z,100632.99
2019-01-24T11:49:49.382Z,100629.59
2019-01-24T11:50:51.194Z,100629.63
2019-01-24T11:51:52.432Z,100630.43
2019-01-24T11:52:53.346Z,100626.92
2019-01-24T11:53:54.283Z,100627.25
2019-01-24T11:54:55.155Z,100623.16
2019-01-24T11:55:56.012Z,100626.30
2019-01-24T11:56:56.869Z,100624.00
2019-01-24T11:57:57.784Z,100622.47
2019-01-24T11:58:58.659Z,100625.19
2019-01-24T11:59:59.530Z,100630.69
2019-01-24T12:01:00.658Z,100627.83
2019-01-24T12:02:01.531Z,100626.97
2019-01-24T12:03:03.434Z,100622.53
2019-01-24T12:04:04.287Z,100624.13
2019-01-24T12:05:08.458Z,100626.97
2019-01-24T12:06:09.318Z,100634.16
2019-01-24T12:07:10.172Z,100624.59
2019-01-24T12:08:11.072Z,100634.94
2019-01-24T12:09:11.927Z,100632.95
2019-01-24T12:10:16.406Z,100628.88
2019-01-24T12:11:17.260Z,100624.05
2019-01-24T12:12:20.734Z,100629.73
2019-01-24T12:13:24.661Z,100625.72
2019-01-24T12:14:25.524Z,100618.50
2019-01-24T12:15:28.286Z,100617.20
2019-01-24T12:16:29.146Z,100614.92
2019-01-24T12:17:30.016Z,100605.34
2019-01-24T12:18:30.979Z,100604.84
2019-01-24T12:19:31.859Z,100598.61
2019-01-24T12:20:32.720Z,100603.41
2019-01-24T12:21:33.575Z,100603.45
2019-01-24T12:22:34.442Z,100605.32
2019-01-24T12:23:35.325Z,100603.88
2019-01-24T12:24:36.191Z,100604.61
2019-01-24T12:25:37.056Z,100605.35
2019-01-24T12:26:37.903Z,100600.38
2019-01-24T12:27:38.760Z,100601.36
2019-01-24T12:28:39.663Z,100597.80
2019-01-24T12:29:40.534Z,100593.22
2019-01-24T12:30:41.380Z,100595.34
2019-01-24T12:31:42.242Z,100592.41
2019-01-24T12:32:43.105Z,100595.08
2019-01-24T12:33:44.021Z,100592.38
2019-01-24T12:34:44.885Z,100588.63